Time;durP1;ratioP1;P1;durP2;ratioP2;P2;SDS_P1;SDS_P2;PMS_P1;PMS_P2;Temp;Humidity;BMP_temperature;BMP_pressure;BME280_temperature;BME280_humidity;BME280_pressure;Samples;Min_cycle;Max_cycle;Signal;HPM_P1;HPM_P2
2021/01/18 00:01:22;;;;;;;17.70;11.52;;;-0.40;99.90;;;;;;5008264;28;20094;-82
2021/01/18 00:03:48;;;;;;;19.60;10.85;;;-0.40;99.90;;;;;;5015864;28;20074;-83
2021/01/18 00:06:18;;;;;;;22.25;13.57;;;-0.30;99.90;;;;;;5028472;28;21033;-83
2021/01/18 00:08:45;;;;;;;23.35;12.07;;;-0.20;99.90;;;;;;5009340;28;20213;-83
2021/01/18 00:11:12;;;;;;;21.33;12.88;;;-0.40;99.90;;;;;;5007679;28;20105;-83
2021/01/18 00:13:38;;;;;;;21.20;12.93;;;-0.40;99.90;;;;;;5012015;28;20083;-83
2021/01/18 00:16:04;;;;;;;21.45;12.45;;;-0.30;99.90;;;;;;5011784;28;20095;-83
2021/01/18 00:18:31;;;;;;;19.35;11.35;;;-0.40;99.90;;;;;;5017437;28;20075;-83
2021/01/18 00:20:57;;;;;;;18.40;11.80;;;-0.30;99.90;;;;;;5009630;28;20122;-83
2021/01/18 00:23:22;;;;;;;16.90;10.77;;;-0.30;99.90;;;;;;5010430;28;20074;-82
2021/01/18 00:25:48;;;;;;;19.08;11.40;;;-0.30;99.90;;;;;;5017670;28;20079;-83
2021/01/18 00:28:13;;;;;;;17.90;11.88;;;-0.30;99.90;;;;;;5017755;28;20495;-83
2021/01/18 00:30:39;;;;;;;18.02;11.00;;;-0.20;99.90;;;;;;5013783;28;20106;-83
2021/01/18 00:33:05;;;;;;;16.42;11.05;;;-0.20;99.90;;;;;;5014017;28;20078;-83
2021/01/18 00:35:31;;;;;;;19.42;11.27;;;-0.20;99.90;;;;;;5013632;28;20145;-83
2021/01/18 00:37:58;;;;;;;15.68;10.88;;;-0.20;99.90;;;;;;5015116;28;20134;-83
2021/01/18 00:40:25;;;;;;;19.02;11.38;;;-0.20;99.90;;;;;;5000564;28;20089;-83
2021/01/18 00:42:51;;;;;;;16.00;10.25;;;-0.20;99.90;;;;;;5001490;28;20156;-83
2021/01/18 00:45:18;;;;;;;17.10;10.68;;;-0.20;99.90;;;;;;5026668;28;20074;-82
2021/01/18 00:47:46;;;;;;;17.15;10.40;;;-0.10;99.90;;;;;;5016125;28;20305;-83
2021/01/18 00:50:14;;;;;;;14.70;10.15;;;-0.20;99.90;;;;;;5012472;28;20130;-83
2021/01/18 00:52:44;;;;;;;15.20;9.75;;;-0.10;99.90;;;;;;5013107;28;20569;-83
2021/01/18 00:55:12;;;;;;;16.40;10.23;;;-0.10;99.90;;;;;;4999124;28;20078;-82
2021/01/18 00:57:38;;;;;;;14.63;9.18;;;0.00;99.90;;;;;;5007739;28;20102;-83
2021/01/18 01:00:07;;;;;;;15.02;10.00;;;0.00;99.90;;;;;;5008398;28;20189;-83
2021/01/18 01:02:33;;;;;;;14.07;9.57;;;0.00;99.90;;;;;;5012724;28;20162;-83
2021/01/18 01:04:58;;;;;;;14.65;9.00;;;0.00;99.90;;;;;;5012492;28;20187;-83
2021/01/18 01:07:24;;;;;;;12.80;8.93;;;0.00;99.90;;;;;;5016257;28;20079;-82
2021/01/18 01:09:49;;;;;;;11.63;8.60;;;0.10;99.90;;;;;;5011477;28;20101;-83
2021/01/18 01:12:19;;;;;;;12.73;7.97;;;0.10;99.90;;;;;;5004432;28;20142;-84
2021/01/18 01:14:44;;;;;;;11.00;8.05;;;0.10;99.90;;;;;;5004813;28;20075;-83
2021/01/18 01:17:11;;;;;;;11.80;7.95;;;0.20;99.90;;;;;;5010800;28;20201;-83
2021/01/18 01:19:36;;;;;;;13.82;8.70;;;0.20;99.90;;;;;;5027272;28;20075;-83
2021/01/18 01:22:02;;;;;;;10.00;7.97;;;0.30;99.90;;;;;;5006540;28;20106;-83
2021/01/18 01:24:27;;;;;;;10.85;8.07;;;0.30;99.90;;;;;;5010867;28;20097;-83
2021/01/18 01:26:53;;;;;;;8.85;7.80;;;0.30;99.90;;;;;;5002712;28;20154;-83
2021/01/18 01:29:18;;;;;;;8.73;6.63;;;0.40;99.90;;;;;;5006994;28;20102;-83
2021/01/18 01:31:44;;;;;;;10.05;7.63;;;0.40;99.90;;;;;;5014124;28;20112;-83
2021/01/18 01:34:10;;;;;;;9.43;7.47;;;0.40;99.90;;;;;;5008630;28;20165;-83
2021/01/18 01:36:42;;;;;;;8.35;6.57;;;0.40;99.90;;;;;;5014094;28;20094;-83
2021/01/18 01:39:07;;;;;;;8.07;6.03;;;0.40;99.90;;;;;;5017496;28;20078;-83
2021/01/18 01:41:33;;;;;;;9.07;6.80;;;0.40;99.90;;;;;;5011065;28;20117;-82
2021/01/18 01:43:58;;;;;;;8.38;6.20;;;0.50;99.90;;;;;;5014854;28;20456;-83
2021/01/18 01:46:24;;;;;;;8.13;7.10;;;0.40;99.90;;;;;;5013503;28;20544;-83
2021/01/18 01:48:50;;;;;;;7.30;5.75;;;0.50;99.90;;;;;;5013987;28;20086;-83
2021/01/18 01:51:16;;;;;;;11.32;7.45;;;0.50;99.90;;;;;;5015847;28;20114;-83
2021/01/18 01:53:41;;;;;;;7.05;6.35;;;0.50;99.90;;;;;;5013847;28;20140;-83
2021/01/18 01:56:07;;;;;;;8.70;6.57;;;0.60;99.90;;;;;;5005585;28;20126;-83
2021/01/18 01:58:33;;;;;;;7.57;5.82;;;0.60;99.90;;;;;;5007334;28;20071;-83
2021/01/18 02:01:00;;;;;;;7.43;6.05;;;0.60;99.90;;;;;;5009109;28;20177;-83
2021/01/18 02:03:28;;;;;;;7.03;5.85;;;0.50;99.90;;;;;;5016277;28;20422;-83
2021/01/18 02:05:54;;;;;;;8.07;5.70;;;0.50;99.90;;;;;;5012734;28;20095;-83
2021/01/18 02:08:20;;;;;;;6.97;5.35;;;0.50;99.90;;;;;;5006466;28;20081;-83
2021/01/18 02:10:46;;;;;;;6.50;5.03;;;0.60;99.90;;;;;;5013723;28;20098;-83
2021/01/18 02:13:17;;;;;;;6.65;5.30;;;0.60;99.90;;;;;;5013437;28;20082;-83
2021/01/18 02:15:57;;;;;;;8.98;5.10;;;0.60;99.90;;;;;;5017202;28;20105;-83
2021/01/18 02:18:29;;;;;;;7.00;4.63;;;0.60;99.90;;;;;;5016960;28;20071;-83
2021/01/18 02:21:00;;;;;;;5.70;4.40;;;0.60;99.90;;;;;;5017416;28;20584;-83
2021/01/18 02:23:53;;;;;;;7.00;5.30;;;0.70;99.90;;;;;;5015704;28;20522;-83
2021/01/18 02:26:49;;;;;;;6.65;4.90;;;0.60;99.90;;;;;;5012793;28;20071;-83
2021/01/18 02:29:33;;;;;;;5.28;4.60;;;0.60;99.90;;;;;;5026315;28;20114;-83
2021/01/18 02:32:25;;;;;;;7.18;4.82;;;0.70;99.90;;;;;;5002378;28;20173;-83
2021/01/18 02:35:06;;;;;;;5.15;4.57;;;0.70;99.90;;;;;;5000337;28;20142;-83
2021/01/18 02:37:50;;;;;;;6.53;4.72;;;0.70;99.90;;;;;;5013645;28;20102;-83
2021/01/18 02:40:33;;;;;;;4.37;3.70;;;0.70;99.90;;;;;;5019454;28;20216;-83
2021/01/18 02:43:04;;;;;;;5.32;4.38;;;0.70;99.90;;;;;;5020140;28;20093;-83
2021/01/18 02:45:31;;;;;;;6.00;4.28;;;0.80;99.90;;;;;;5016331;28;20078;-83
2021/01/18 02:47:57;;;;;;;8.10;4.80;;;0.70;99.90;;;;;;5017875;28;20082;-83
2021/01/18 02:50:23;;;;;;;6.63;4.97;;;0.80;99.90;;;;;;5011037;28;20101;-83
2021/01/18 02:52:48;;;;;;;7.03;4.50;;;0.70;99.90;;;;;;5013505;28;20078;-83
2021/01/18 02:55:16;;;;;;;6.30;4.72;;;0.80;99.90;;;;;;5018755;28;20089;-83
2021/01/18 02:57:43;;;;;;;5.07;4.03;;;0.70;99.90;;;;;;5014567;28;20081;-83
2021/01/18 03:00:13;;;;;;;6.18;4.43;;;0.80;99.90;;;;;;5016412;28;20137;-83
2021/01/18 03:02:53;;;;;;;5.30;4.38;;;0.80;99.90;;;;;;5015305;28;20089;-83
2021/01/18 03:05:33;;;;;;;8.88;4.75;;;0.70;99.90;;;;;;5018752;28;20082;-83
2021/01/18 03:08:01;;;;;;;5.82;4.70;;;0.70;99.90;;;;;;5015212;28;20465;-83
2021/01/18 03:10:36;;;;;;;5.63;3.60;;;0.80;99.90;;;;;;5014128;28;20117;-83
2021/01/18 03:13:04;;;;;;;;;;;0.80;99.90;;;;;;5018181;28;20135;-83
2021/01/18 03:15:37;;;;;;;4.68;4.18;;;0.90;99.90;;;;;;5008333;28;20348;-83
2021/01/18 03:18:04;;;;;;;7.22;5.25;;;0.80;99.90;;;;;;5013728;28;20070;-83
2021/01/18 03:20:31;;;;;;;6.35;4.53;;;0.80;99.90;;;;;;5008063;28;20086;-83
2021/01/18 03:23:07;;;;;;;6.68;4.45;;;0.80;99.90;;;;;;5018332;28;20129;-83
2021/01/18 03:25:52;;;;;;;5.68;4.35;;;0.80;99.90;;;;;;5010655;28;20074;-83
2021/01/18 03:28:19;;;;;;;7.00;5.30;;;0.80;99.90;;;;;;5009658;28;20074;-83
2021/01/18 03:30:45;;;;;;;6.82;4.90;;;0.80;99.90;;;;;;5014525;28;20194;-83
2021/01/18 03:33:11;;;;;;;5.82;4.13;;;0.90;99.90;;;;;;5005052;28;20174;-83
2021/01/18 03:35:37;;;;;;;5.93;4.32;;;0.90;99.90;;;;;;5017339;28;20121;-83
2021/01/18 03:38:03;;;;;;;5.53;4.20;;;0.90;99.90;;;;;;5018713;28;20090;-83
2021/01/18 03:40:29;;;;;;;6.40;4.43;;;0.90;99.90;;;;;;5015831;28;20163;-83
2021/01/18 03:43:08;;;;;;;6.88;4.70;;;0.90;99.90;;;;;;5016680;28;20082;-83
2021/01/18 03:45:37;;;;;;;6.60;4.75;;;0.90;99.90;;;;;;5012969;28;20089;-83
2021/01/18 03:48:07;;;;;;;6.78;4.70;;;0.90;99.90;;;;;;5026492;28;20078;-83
2021/01/18 03:50:34;;;;;;;5.80;4.55;;;0.90;99.90;;;;;;5002278;28;20083;-83
2021/01/18 03:53:00;;;;;;;6.97;4.78;;;0.90;99.90;;;;;;5005810;28;20078;-83
2021/01/18 03:55:25;;;;;;;5.65;4.47;;;0.90;99.90;;;;;;5013712;28;20093;-83
2021/01/18 03:57:53;;;;;;;6.13;3.97;;;0.90;99.90;;;;;;5001944;28;20622;-83
2021/01/18 04:00:21;;;;;;;6.53;4.78;;;0.90;99.90;;;;;;5014101;28;20082;-83
2021/01/18 04:02:47;;;;;;;9.02;4.65;;;0.90;99.90;;;;;;5013133;28;20074;-83
2021/01/18 04:05:14;;;;;;;7.28;4.93;;;0.90;99.90;;;;;;5011877;28;20086;-83
2021/01/18 04:07:43;;;;;;;6.18;4.45;;;0.90;99.90;;;;;;5011566;28;20161;-83
2021/01/18 04:10:10;;;;;;;6.13;4.28;;;1.00;99.90;;;;;;5003623;28;20099;-83
2021/01/18 04:12:40;;;;;;;7.00;5.32;;;0.90;99.90;;;;;;5003440;28;20158;-83
2021/01/18 04:15:08;;;;;;;7.30;4.82;;;0.90;99.90;;;;;;5012235;28;20071;-83
2021/01/18 04:17:35;;;;;;;6.05;4.25;;;1.00;99.90;;;;;;5004968;28;20094;-83
2021/01/18 04:20:00;;;;;;;8.45;4.75;;;1.00;99.90;;;;;;5014505;28;20094;-83
2021/01/18 04:22:26;;;;;;;7.82;5.07;;;1.00;99.90;;;;;;5013956;28;20074;-83
2021/01/18 04:24:51;;;;;;;7.05;4.40;;;1.00;99.90;;;;;;5014699;28;20075;-83
2021/01/18 04:27:17;;;;;;;5.88;4.82;;;1.00;99.90;;;;;;5003570;28;20573;-83
2021/01/18 04:29:42;;;;;;;7.28;5.40;;;1.00;99.90;;;;;;5028121;28;20086;-83
2021/01/18 04:32:10;;;;;;;8.30;4.22;;;1.00;99.90;;;;;;5008404;28;20090;-83
2021/01/18 04:34:36;;;;;;;6.18;4.68;;;1.00;99.90;;;;;;5013318;28;20082;-83
2021/01/18 04:37:01;;;;;;;7.53;4.80;;;1.00;99.90;;;;;;5009921;28;20658;-83
2021/01/18 04:39:27;;;;;;;6.00;4.65;;;1.00;99.90;;;;;;5002870;28;20082;-83
2021/01/18 04:41:53;;;;;;;6.78;4.35;;;1.00;99.90;;;;;;5011001;28;20169;-83
2021/01/18 04:44:21;;;;;;;7.60;4.40;;;1.00;99.90;;;;;;5009343;28;20168;-83
2021/01/18 04:46:47;;;;;;;5.70;4.72;;;1.00;99.90;;;;;;5009604;28;20086;-83
2021/01/18 04:49:14;;;;;;;6.07;4.38;;;1.00;99.90;;;;;;5010704;28;20157;-83
2021/01/18 04:51:56;;;;;;;7.10;3.85;;;0.90;99.90;;;;;;5009145;28;20120;-83
2021/01/18 04:54:24;;;;;;;6.63;3.65;;;1.00;99.90;;;;;;5010491;28;20562;-83
2021/01/18 04:57:12;;;;;;;5.32;4.10;;;1.00;99.90;;;;;;5014208;28;20471;-83
2021/01/18 04:59:46;;;;;;;7.10;4.85;;;1.00;99.90;;;;;;5000884;28;20078;-83
2021/01/18 05:02:15;;;;;;;6.43;4.00;;;1.00;99.90;;;;;;4999229;28;20135;-83
2021/01/18 05:04:44;;;;;;;7.05;4.45;;;1.00;99.90;;;;;;4999988;28;20445;-83
2021/01/18 05:07:21;;;;;;;7.05;3.83;;;1.00;99.90;;;;;;5006468;28;20078;-83
2021/01/18 05:10:06;;;;;;;8.13;4.20;;;1.00;99.90;;;;;;4996542;28;20091;-83
2021/01/18 05:12:35;;;;;;;6.00;4.25;;;1.00;99.90;;;;;;5013028;28;20070;-83
2021/01/18 05:15:04;;;;;;;6.90;4.35;;;1.00;99.90;;;;;;5005941;28;20529;-83
2021/01/18 05:17:40;;;;;;;7.13;4.45;;;1.00;99.90;;;;;;5002813;28;20090;-83
2021/01/18 05:20:08;;;;;;;7.30;4.50;;;1.00;99.90;;;;;;5000358;28;20086;-84
2021/01/18 05:22:34;;;;;;;6.95;4.05;;;1.10;99.90;;;;;;5013425;28;20067;-83
2021/01/18 05:25:06;;;;;;;10.68;4.60;;;1.00;99.90;;;;;;5014374;28;20080;-83
2021/01/18 05:27:31;;;;;;;7.35;4.43;;;1.00;99.90;;;;;;5011725;28;20090;-84
2021/01/18 05:29:57;;;;;;;15.68;4.18;;;1.00;99.90;;;;;;5010997;28;20568;-82
2021/01/18 05:32:25;;;;;;;8.32;4.53;;;1.00;99.90;;;;;;5001870;28;20097;-82
2021/01/18 05:35:12;;;;;;;7.30;4.28;;;1.00;99.90;;;;;;5003715;28;20074;-82
2021/01/18 05:38:14;;;;;;;8.50;3.97;;;1.00;99.90;;;;;;5005872;28;20094;-82
2021/01/18 05:41:01;;;;;;;8.38;5.25;;;1.00;99.90;;;;;;5006792;28;20170;-82
2021/01/18 05:43:34;;;;;;;8.52;4.75;;;1.00;99.90;;;;;;5005404;28;20532;-82
2021/01/18 05:46:07;;;;;;;6.70;4.60;;;1.00;99.90;;;;;;5013178;28;20078;-82
2021/01/18 05:48:33;;;;;;;12.25;5.20;;;1.00;99.90;;;;;;5007624;28;20097;-82
2021/01/18 05:51:00;;;;;;;9.35;5.15;;;1.00;99.90;;;;;;5015090;28;20090;-82
2021/01/18 05:53:33;;;;;;;7.68;5.05;;;1.00;99.90;;;;;;5007079;28;20078;-82
2021/01/18 05:56:20;;;;;;;8.80;4.88;;;1.00;99.90;;;;;;4997700;28;20086;-82
2021/01/18 05:58:47;;;;;;;8.38;5.05;;;1.00;99.90;;;;;;5000599;28;20078;-82
2021/01/18 06:01:13;;;;;;;6.43;4.82;;;1.00;99.90;;;;;;5006955;28;20091;-82
2021/01/18 06:03:39;;;;;;;10.23;5.50;;;1.00;99.90;;;;;;5006246;28;20082;-82
2021/01/18 06:06:05;;;;;;;10.45;6.15;;;1.00;99.90;;;;;;5014034;28;20081;-82
2021/01/18 06:08:31;;;;;;;10.98;5.20;;;1.00;99.90;;;;;;5011051;28;20482;-82
2021/01/18 06:11:03;;;;;;;7.25;4.82;;;1.00;99.90;;;;;;5014426;28;20189;-82
2021/01/18 06:13:33;;;;;;;7.80;4.93;;;1.00;99.90;;;;;;5001311;28;20247;-82
2021/01/18 06:16:02;;;;;;;7.40;5.00;;;1.00;99.90;;;;;;5005518;28;20089;-82
2021/01/18 06:18:29;;;;;;;7.68;4.35;;;1.00;99.90;;;;;;5015687;28;20071;-82
2021/01/18 06:21:00;;;;;;;7.63;4.90;;;1.00;99.90;;;;;;5017025;28;20090;-82
2021/01/18 06:23:26;;;;;;;10.55;5.07;;;1.00;99.90;;;;;;5019951;28;20083;-82
2021/01/18 06:25:53;;;;;;;7.57;4.95;;;1.00;99.90;;;;;;5006487;28;20097;-82
2021/01/18 06:28:40;;;;;;;6.50;4.18;;;1.00;99.90;;;;;;5005698;28;20169;-82
2021/01/18 06:31:08;;;;;;;8.82;5.25;;;1.00;99.90;;;;;;5004761;28;20157;-82
2021/01/18 06:33:35;;;;;;;8.23;4.60;;;1.00;99.90;;;;;;4997970;28;20534;-82
2021/01/18 06:36:22;;;;;;;7.97;5.78;;;1.00;99.90;;;;;;5014693;28;20153;-83
2021/01/18 06:39:00;;;;;;;6.00;4.55;;;1.10;99.90;;;;;;5014196;28;20105;-82
2021/01/18 06:41:34;;;;;;;9.65;4.38;;;1.00;99.90;;;;;;5016818;28;20090;-82
2021/01/18 06:44:00;;;;;;;8.00;4.82;;;1.00;99.90;;;;;;5004798;28;20504;-82
2021/01/18 06:46:30;;;;;;;7.45;5.03;;;1.00;99.90;;;;;;5010993;28;20083;-82
2021/01/18 06:48:57;;;;;;;8.68;4.82;;;1.10;99.90;;;;;;5003923;28;20141;-83
2021/01/18 06:51:24;;;;;;;9.18;5.53;;;1.00;99.90;;;;;;5000578;28;20197;-82
2021/01/18 06:53:52;;;;;;;9.15;4.95;;;1.00;99.90;;;;;;5005399;28;20079;-82
2021/01/18 06:56:20;;;;;;;8.23;4.80;;;1.00;99.90;;;;;;5012951;28;20101;-82
2021/01/18 06:59:27;;;;;;;7.30;4.55;;;1.00;99.90;;;;;;5011422;28;20545;-83
2021/01/18 07:02:16;;;;;;;9.65;5.57;;;1.00;99.90;;;;;;5002128;28;20090;-82
2021/01/18 07:04:47;;;;;;;7.57;4.50;;;1.10;99.90;;;;;;5006616;28;20075;-82
2021/01/18 07:07:24;;;;;;;6.07;4.30;;;1.10;99.90;;;;;;5008245;28;20085;-82
2021/01/18 07:09:57;;;;;;;7.85;5.07;;;1.00;99.90;;;;;;5008720;28;20102;-83
2021/01/18 07:12:24;;;;;;;7.68;5.25;;;1.10;99.90;;;;;;5015583;28;20574;-83
2021/01/18 07:15:09;;;;;;;8.50;5.53;;;1.10;99.90;;;;;;5006465;28;20278;-82
2021/01/18 07:17:44;;;;;;;7.18;5.18;;;1.10;99.90;;;;;;5007388;28;20094;-82
2021/01/18 07:20:20;;;;;;;7.43;4.75;;;1.10;99.90;;;;;;5004711;28;20093;-82
2021/01/18 07:23:08;;;;;;;7.90;5.32;;;1.10;99.90;;;;;;5013484;28;20109;-83
2021/01/18 07:25:38;;;;;;;6.85;4.47;;;1.10;99.90;;;;;;5010367;28;20127;-82
2021/01/18 07:28:05;;;;;;;8.60;5.15;;;1.10;99.90;;;;;;5010580;28;20078;-82
2021/01/18 07:30:37;;;;;;;11.00;5.60;;;1.10;99.90;;;;;;5003047;28;20098;-82
2021/01/18 07:33:16;;;;;;;7.28;5.28;;;1.10;99.90;;;;;;4999820;28;20480;-82
2021/01/18 07:35:44;;;;;;;7.13;4.65;;;1.00;99.90;;;;;;4997689;28;20241;-83
2021/01/18 07:38:10;;;;;;;7.53;5.35;;;1.00;99.90;;;;;;5009156;28;20537;-82
2021/01/18 07:40:35;;;;;;;8.98;5.15;;;1.10;99.90;;;;;;5011137;28;20089;-82
2021/01/18 07:43:01;;;;;;;9.32;5.68;;;1.10;99.90;;;;;;5012176;28;20078;-83
2021/01/18 07:45:27;;;;;;;7.05;5.18;;;1.10;99.90;;;;;;5009974;28;20091;-82
2021/01/18 07:47:55;;;;;;;7.10;4.65;;;1.00;99.90;;;;;;5003901;28;20085;-83
2021/01/18 07:50:38;;;;;;;7.10;4.53;;;1.10;99.90;;;;;;5011064;28;20098;-83
2021/01/18 07:53:04;;;;;;;6.20;4.75;;;1.10;99.90;;;;;;5012961;28;20094;-83
2021/01/18 07:55:30;;;;;;;8.13;5.45;;;1.00;99.90;;;;;;5008559;28;20079;-83
2021/01/18 07:58:16;;;;;;;13.32;7.90;;;1.10;99.90;;;;;;5006639;28;20406;-83
2021/01/18 08:00:47;;;;;;;23.38;11.40;;;1.10;99.90;;;;;;5009919;28;20090;-83
2021/01/18 08:03:12;;;;;;;9.32;6.68;;;1.10;99.90;;;;;;5003819;28;20071;-83
2021/01/18 08:05:40;;;;;;;12.07;6.53;;;1.10;99.90;;;;;;5002360;28;20445;-83
2021/01/18 08:08:11;;;;;;;10.23;6.25;;;1.00;99.90;;;;;;5009415;28;20265;-83
2021/01/18 08:11:05;;;;;;;8.77;5.38;;;1.10;99.90;;;;;;5005554;28;20175;-83
2021/01/18 08:13:45;;;;;;;8.98;5.30;;;1.00;99.90;;;;;;5006356;28;20081;-83
2021/01/18 08:16:15;;;;;;;8.52;6.22;;;1.10;99.90;;;;;;5013610;28;20090;-83
2021/01/18 08:19:00;;;;;;;9.05;5.15;;;1.10;99.90;;;;;;5001943;28;20508;-83
2021/01/18 08:21:32;;;;;;;;;;;1.00;99.90;;;;;;5001864;28;20087;-82
2021/01/18 08:23:58;;;;;;;10.68;4.95;;;1.00;99.90;;;;;;5003502;28;20425;-82
2021/01/18 08:26:23;;;;;;;12.38;5.93;;;1.00;99.90;;;;;;5007848;28;20109;-83
2021/01/18 08:28:49;;;;;;;8.35;4.90;;;1.00;99.90;;;;;;5006914;28;20099;-84
2021/01/18 08:31:15;;;;;;;10.00;6.53;;;1.00;99.90;;;;;;5011391;28;20113;-82
2021/01/18 08:33:40;;;;;;;7.05;5.13;;;1.00;99.90;;;;;;5003002;28;20129;-82
2021/01/18 08:36:06;;;;;;;9.18;5.60;;;1.00;99.90;;;;;;5007004;28;20094;-82
2021/01/18 08:38:32;;;;;;;8.77;5.63;;;1.00;99.90;;;;;;4995404;28;20082;-81
2021/01/18 08:41:09;;;;;;;7.72;5.05;;;1.00;99.90;;;;;;5004148;28;20471;-81
2021/01/18 08:43:52;;;;;;;8.40;5.30;;;1.00;99.90;;;;;;5007452;28;20128;-81
2021/01/18 08:46:32;;;;;;;9.20;4.97;;;1.10;99.90;;;;;;5010781;28;20086;-82
2021/01/18 08:49:24;;;;;;;8.55;4.30;;;1.10;99.90;;;;;;5001035;28;20530;-81
2021/01/18 08:51:51;;;;;;;10.88;5.85;;;1.00;99.90;;;;;;5001477;28;20086;-81
2021/01/18 08:54:36;;;;;;;7.38;4.97;;;1.00;99.90;;;;;;4994986;28;20173;-81
2021/01/18 08:57:42;;;;;;;7.45;5.13;;;1.10;99.90;;;;;;5008299;28;20098;-82
2021/01/18 09:00:10;;;;;;;8.43;4.90;;;1.10;99.90;;;;;;4952161;28;20512;-82
2021/01/18 09:02:39;;;;;;;8.43;5.35;;;1.10;99.90;;;;;;4990496;28;20529;-81
2021/01/18 09:05:14;;;;;;;7.25;5.20;;;1.10;99.90;;;;;;4993373;28;20074;-82
2021/01/18 09:07:42;;;;;;;7.90;5.00;;;1.10;99.90;;;;;;5000546;28;20165;-82
2021/01/18 09:10:30;;;;;;;7.07;4.38;;;1.10;99.90;;;;;;4997745;28;20638;-82
2021/01/18 09:13:02;;;;;;;8.90;4.97;;;1.00;99.90;;;;;;4993139;28;20078;-82
2021/01/18 09:15:27;;;;;;;9.20;5.82;;;1.10;99.90;;;;;;4991615;28;20082;-82
2021/01/18 09:17:53;;;;;;;9.15;5.45;;;1.00;99.90;;;;;;4996032;28;20124;-82
2021/01/18 09:20:18;;;;;;;7.70;4.57;;;1.10;99.90;;;;;;5004933;28;20454;-82
2021/01/18 09:22:45;;;;;;;8.07;5.03;;;1.10;99.90;;;;;;4994985;28;20437;-82
2021/01/18 09:25:12;;;;;;;7.82;4.95;;;1.10;99.90;;;;;;5008788;28;20161;-82
2021/01/18 09:27:38;;;;;;;5.90;4.30;;;1.10;99.90;;;;;;4996569;28;20079;-82
2021/01/18 09:30:11;;;;;;;13.05;5.70;;;1.10;99.90;;;;;;4988495;28;20170;-82
2021/01/18 09:32:37;;;;;;;6.90;4.85;;;1.10;99.90;;;;;;4993052;28;20561;-82
2021/01/18 09:35:10;;;;;;;8.95;5.07;;;1.10;99.90;;;;;;4994903;28;20093;-82
2021/01/18 09:37:47;;;;;;;14.52;6.57;;;1.10;99.90;;;;;;5000166;28;20466;-82
2021/01/18 09:40:14;;;;;;;11.85;6.75;;;1.10;99.90;;;;;;5004536;28;20086;-82
2021/01/18 09:42:41;;;;;;;10.88;5.72;;;1.10;99.90;;;;;;4997607;28;20088;-82
2021/01/18 09:45:08;;;;;;;10.70;5.47;;;1.10;99.90;;;;;;5002407;28;20169;-82
2021/01/18 09:47:35;;;;;;;10.10;5.95;;;1.10;99.90;;;;;;5003625;28;20075;-82
2021/01/18 09:50:13;;;;;;;11.80;6.10;;;1.10;99.90;;;;;;5006756;28;20171;-82
2021/01/18 09:52:47;;;;;;;13.85;5.53;;;1.10;99.90;;;;;;4997192;28;20126;-83
2021/01/18 09:55:24;;;;;;;10.23;5.20;;;1.10;99.90;;;;;;5005463;28;20078;-82
2021/01/18 09:58:13;;;;;;;11.10;5.47;;;1.10;99.90;;;;;;5012986;28;20256;-83
2021/01/18 10:00:42;;;;;;;12.07;7.22;;;1.10;99.90;;;;;;4998195;28;20091;-82
2021/01/18 10:03:09;;;;;;;9.10;4.65;;;1.10;99.90;;;;;;4996920;28;20107;-82
2021/01/18 10:05:39;;;;;;;14.13;5.20;;;1.10;99.90;;;;;;4997363;28;20086;-82
2021/01/18 10:08:16;;;;;;;7.20;4.80;;;1.10;99.90;;;;;;5005729;28;20067;-83
2021/01/18 10:10:45;;;;;;;10.10;5.68;;;1.20;99.90;;;;;;4999902;28;20177;-82
2021/01/18 10:13:23;;;;;;;15.65;5.15;;;1.10;99.90;;;;;;5006845;28;20482;-83
2021/01/18 10:15:49;;;;;;;8.63;4.63;;;1.10;99.90;;;;;;5008493;28;20117;-82
2021/01/18 10:18:34;;;;;;;10.68;5.75;;;1.10;99.90;;;;;;5007818;28;20142;-82
2021/01/18 10:21:01;;;;;;;12.02;5.50;;;1.20;99.90;;;;;;5007469;28;20542;-83
2021/01/18 10:23:31;;;;;;;10.88;5.63;;;1.20;99.90;;;;;;5004553;28;20094;-82
2021/01/18 10:26:23;;;;;;;7.28;4.68;;;1.20;99.90;;;;;;5004157;28;20075;-82
2021/01/18 10:28:53;;;;;;;8.80;4.97;;;1.20;99.90;;;;;;5010215;28;20508;-82
2021/01/18 10:31:27;;;;;;;9.15;5.13;;;1.20;99.90;;;;;;5005712;28;20580;-82
2021/01/18 10:34:16;;;;;;;6.40;4.68;;;1.20;99.90;;;;;;5008141;28;20085;-83
2021/01/18 10:36:45;;;;;;;8.38;4.07;;;1.20;99.90;;;;;;5010169;28;20098;-82
2021/01/18 10:39:34;;;;;;;7.60;4.68;;;1.20;99.90;;;;;;5002873;28;20172;-84
2021/01/18 10:42:19;;;;;;;10.65;4.90;;;1.20;99.90;;;;;;5008599;28;20074;-82
2021/01/18 10:44:57;;;;;;;9.65;4.70;;;1.20;99.90;;;;;;5002749;28;20078;-82
2021/01/18 10:47:28;;;;;;;8.23;4.38;;;1.20;99.90;;;;;;5007263;28;20074;-83
2021/01/18 10:49:58;;;;;;;9.48;4.57;;;1.20;99.90;;;;;;5008739;28;20256;-82
2021/01/18 10:52:35;;;;;;;8.77;4.18;;;1.20;99.90;;;;;;4998646;28;20110;-82
2021/01/18 10:55:04;;;;;;;10.75;4.75;;;1.20;99.90;;;;;;5005436;28;20177;-84
2021/01/18 10:57:30;;;;;;;9.40;4.68;;;1.20;99.90;;;;;;5009059;28;20093;-83
2021/01/18 11:00:22;;;;;;;10.77;4.22;;;1.20;99.90;;;;;;5004237;28;20095;-84
2021/01/18 11:02:58;;;;;;;8.90;4.63;;;1.20;99.90;;;;;;4996076;28;20106;-83
2021/01/18 11:05:35;;;;;;;15.38;5.75;;;1.20;99.90;;;;;;5010526;28;20074;-84
2021/01/18 11:08:04;;;;;;;10.15;5.03;;;1.20;99.90;;;;;;4998556;28;20086;-83
2021/01/18 11:10:30;;;;;;;11.43;5.28;;;1.10;99.90;;;;;;4998382;28;20101;-83
2021/01/18 11:12:59;;;;;;;13.25;6.28;;;1.10;99.90;;;;;;5011525;28;20086;-84
2021/01/18 11:15:30;;;;;;;8.55;4.50;;;1.10;99.90;;;;;;5007719;28;20137;-84
2021/01/18 11:17:56;;;;;;;7.78;4.57;;;1.10;99.90;;;;;;4995783;28;20496;-82
2021/01/18 11:20:27;;;;;;;9.95;4.35;;;1.10;99.90;;;;;;5010920;28;20094;-84
2021/01/18 11:22:53;;;;;;;9.75;5.55;;;1.10;99.90;;;;;;5013784;28;20086;-84
2021/01/18 11:25:22;;;;;;;9.02;4.75;;;1.10;99.90;;;;;;5012149;28;20074;-84
2021/01/18 11:27:49;;;;;;;8.63;4.00;;;1.10;99.90;;;;;;5003745;28;20074;-84
2021/01/18 11:30:15;;;;;;;9.23;4.32;;;1.10;99.90;;;;;;5000902;28;20526;-84
2021/01/18 11:32:42;;;;;;;9.38;4.63;;;1.10;99.90;;;;;;5007477;28;20090;-84
2021/01/18 11:35:09;;;;;;;7.75;4.28;;;1.10;99.90;;;;;;5013982;28;20078;-84
2021/01/18 11:37:36;;;;;;;9.52;4.65;;;1.10;99.90;;;;;;5014449;28;20087;-84
2021/01/18 11:40:06;;;;;;;9.15;4.78;;;1.20;99.90;;;;;;5000450;28;20103;-84
2021/01/18 11:42:33;;;;;;;9.88;5.85;;;1.20;99.90;;;;;;4998267;28;20128;-84
2021/01/18 11:45:05;;;;;;;8.45;4.05;;;1.10;99.90;;;;;;5007003;28;20071;-84
2021/01/18 11:47:32;;;;;;;9.73;3.75;;;1.20;99.90;;;;;;5008558;28;20085;-84
2021/01/18 11:49:58;;;;;;;9.85;4.50;;;1.10;99.90;;;;;;5012413;28;20434;-84
2021/01/18 11:52:23;;;;;;;17.92;5.40;;;1.10;99.90;;;;;;5013771;28;20090;-83
2021/01/18 11:54:49;;;;;;;9.27;4.25;;;1.10;99.90;;;;;;5003800;28;20078;-84
2021/01/18 11:57:15;;;;;;;8.35;4.75;;;1.20;99.90;;;;;;5012933;28;20094;-84
2021/01/18 11:59:41;;;;;;;8.30;4.57;;;1.10;99.90;;;;;;5004922;28;20138;-84
2021/01/18 12:02:07;;;;;;;7.97;5.18;;;1.10;99.90;;;;;;5007843;28;20070;-85
2021/01/18 12:04:32;;;;;;;12.55;6.25;;;1.10;99.90;;;;;;5011932;28;20144;-84
2021/01/18 12:06:58;;;;;;;6.90;4.15;;;1.10;99.90;;;;;;5012174;28;20086;-84
2021/01/18 12:09:23;;;;;;;7.05;4.07;;;1.10;99.90;;;;;;5009747;28;20860;-84
2021/01/18 12:11:49;;;;;;;6.10;3.80;;;1.10;99.90;;;;;;5012956;28;20106;-84
2021/01/18 12:14:15;;;;;;;6.85;3.70;;;1.10;99.90;;;;;;5012372;28;20085;-84
2021/01/18 12:16:40;;;;;;;7.28;3.50;;;1.20;99.90;;;;;;4999623;28;20616;-84
2021/01/18 12:19:06;;;;;;;6.95;3.60;;;1.20;99.90;;;;;;5009196;28;20078;-84
2021/01/18 12:21:40;;;;;;;6.10;3.85;;;1.20;99.90;;;;;;5009766;28;20106;-84
2021/01/18 12:24:06;;;;;;;8.65;4.50;;;1.20;99.90;;;;;;5001036;28;20084;-84
2021/01/18 12:26:31;;;;;;;7.47;4.47;;;1.10;99.90;;;;;;4997941;28;20458;-84
2021/01/18 12:28:57;;;;;;;9.18;4.03;;;1.10;99.90;;;;;;5011045;28;20082;-84
2021/01/18 12:31:23;;;;;;;11.90;4.30;;;1.20;99.90;;;;;;4999706;28;20661;-84
2021/01/18 12:33:49;;;;;;;9.27;4.32;;;1.20;99.90;;;;;;4996984;28;20153;-84
2021/01/18 12:36:15;;;;;;;10.50;4.20;;;1.10;99.90;;;;;;4992791;28;20570;-84
2021/01/18 12:38:40;;;;;;;10.13;3.95;;;1.10;99.90;;;;;;4996714;28;20092;-84
2021/01/18 12:41:06;;;;;;;10.30;4.60;;;1.20;99.90;;;;;;5003391;28;20087;-84
2021/01/18 12:43:31;;;;;;;8.18;3.75;;;1.20;99.90;;;;;;5011353;28;20268;-84
2021/01/18 12:46:00;;;;;;;8.80;4.20;;;1.20;99.90;;;;;;5003054;28;20079;-84
2021/01/18 12:48:26;;;;;;;10.32;3.92;;;1.30;99.90;;;;;;5007865;28;20106;-84
2021/01/18 12:50:52;;;;;;;8.82;3.63;;;1.30;99.90;;;;;;5000294;28;20296;-84
2021/01/18 12:56:02;;;;;;;9.50;4.45;;;1.30;99.90;;;;;;4997848;28;20500;-84
2021/01/18 12:58:41;;;;;;;8.63;4.63;;;1.30;99.90;;;;;;5001760;28;20158;-84
2021/01/18 13:01:06;;;;;;;9.00;3.63;;;1.30;99.90;;;;;;4998891;28;20113;-84
2021/01/18 13:03:37;;;;;;;7.05;3.35;;;1.30;99.90;;;;;;5014917;28;20080;-84
2021/01/18 13:06:02;;;;;;;10.68;4.18;;;1.30;99.90;;;;;;5010887;28;20110;-84
2021/01/18 13:08:28;;;;;;;9.00;3.88;;;1.30;99.90;;;;;;4994109;28;20119;-84
2021/01/18 13:11:02;;;;;;;7.45;4.10;;;1.30;99.90;;;;;;4999598;28;20839;-84
2021/01/18 13:13:27;;;;;;;7.30;3.90;;;1.30;99.90;;;;;;5017484;28;20449;-84